Tallahassee, Florida
Current Conditions -  °F | °C
As of 4:53 AM on Saturday 22 Nov 2014 (Local Time) from KTLH Reporting Station
Few Clouds Few Clouds  
Wind Chill: 12°   Ceiling: Unl
Heat Index: 12°   Visibility: 10mi
Dew Point:   Wind: 7mph
Humidity: 64%   Direction: 70°ENE
Pressure: 30.31"   Gusts: NA
Location:  30.44°N, 84.28°W
Report Text: KTLH 220953Z AUTO 07006KT 10SM FEW038 12/06 A3031 RMK AO2 SLP262 T01220056 $
Loading
Personal Weather Stations






























Interactive Weather Map New forecast layout! Learn more

10-Day Weather Forecast

Advertisements
Track Severe Weather on mobile